createdAt,value
2023-04-03T00:00:12.936Z,101239.19
2023-04-03T00:01:44.951Z,101243.66
2023-04-03T00:03:17.988Z,101235.75
2023-04-03T00:04:49.887Z,101244.69
2023-04-03T00:06:21.979Z,101240.34
2023-04-03T00:07:53.836Z,101243.09
2023-04-03T00:09:25.787Z,101238.69
2023-04-03T00:10:58.113Z,101243.25
2023-04-03T00:12:29.902Z,101245.91
2023-04-03T00:14:01.766Z,101245.13
2023-04-03T00:15:34.172Z,101248.69
2023-04-03T00:17:06.068Z,101254.94
2023-04-03T00:18:39.724Z,101248.78
2023-04-03T00:20:11.665Z,101261.25
2023-04-03T00:21:43.494Z,101252.44
2023-04-03T00:23:16.094Z,101250.72
2023-04-03T00:24:47.918Z,101258.72
2023-04-03T00:26:19.831Z,101259.66
2023-04-03T00:27:52.840Z,101259.75
2023-04-03T00:29:24.713Z,101262.41
2023-04-03T00:30:56.730Z,101269.50
2023-04-03T00:32:28.886Z,101262.50
2023-04-03T00:34:00.728Z,101263.41
2023-04-03T00:35:33.065Z,101270.56
2023-04-03T00:37:05.081Z,101263.53
2023-04-03T00:38:37.306Z,101273.31
2023-04-03T00:40:10.999Z,101270.66
2023-04-03T00:41:43.002Z,101272.53
2023-04-03T00:43:20.454Z,101275.25
2023-04-03T00:44:58.044Z,101271.75
2023-04-03T00:46:29.901Z,101268.22
2023-04-03T00:48:06.840Z,101275.31
2023-04-03T00:49:39.916Z,101274.50
2023-04-03T00:51:17.753Z,101274.56
2023-04-03T00:52:50.335Z,101270.19
2023-04-03T00:54:22.748Z,101272.00
2023-04-03T00:55:56.922Z,101279.16
2023-04-03T00:57:31.915Z,101279.25
2023-04-03T00:59:24.283Z,101282.88
2023-04-03T01:00:59.916Z,101286.44
2023-04-03T01:02:32.021Z,101279.44
2023-04-03T01:04:07.067Z,101287.41
2023-04-03T01:05:39.355Z,101284.84
2023-04-03T01:07:17.849Z,101285.84
2023-04-03T01:08:51.192Z,101285.00
2023-04-03T01:10:23.400Z,101282.41
2023-04-03T01:11:55.607Z,101288.72
2023-04-03T01:13:31.142Z,101283.50
2023-04-03T01:15:10.544Z,101288.91
2023-04-03T01:16:42.398Z,101294.22
2023-04-03T01:18:14.658Z,101297.88
2023-04-03T01:19:58.361Z,101297.09
2023-04-03T01:22:06.039Z,101296.34
2023-04-03T01:23:47.041Z,101298.13
2023-04-03T01:25:19.023Z,101294.66
2023-04-03T01:26:51.638Z,101301.78
2023-04-03T01:28:35.655Z,101302.78
2023-04-03T01:30:08.693Z,101304.63
2023-04-03T01:31:47.764Z,101302.03
2023-04-03T01:33:19.905Z,101310.03
2023-04-03T01:34:53.096Z,101307.44
2023-04-03T01:36:27.715Z,101305.75
2023-04-03T01:37:59.920Z,101313.81
2023-04-03T01:39:31.907Z,101317.41
2023-04-03T01:41:04.377Z,101321.91
2023-04-03T01:42:36.192Z,101327.28
2023-04-03T01:44:08.269Z,101317.66
2023-04-03T01:45:40.423Z,101321.25
2023-04-03T01:47:12.243Z,101322.19
2023-04-03T01:48:45.627Z,101329.31
2023-04-03T01:50:17.644Z,101332.03
2023-04-03T01:51:50.250Z,101327.72
2023-04-03T01:53:22.158Z,101331.38
2023-04-03T01:54:54.077Z,101338.47
2023-04-03T01:56:26.328Z,101330.63
2023-04-03T01:57:58.196Z,101335.13
2023-04-03T01:59:30.911Z,101337.88
2023-04-03T02:01:02.910Z,101343.25
2023-04-03T02:02:35.120Z,101343.31
2023-04-03T02:04:07.606Z,101334.59
2023-04-03T02:05:39.713Z,101344.38
2023-04-03T02:07:11.498Z,101346.22
2023-04-03T02:08:43.356Z,101347.16
2023-04-03T02:10:15.438Z,101352.50
2023-04-03T02:11:47.736Z,101359.66
2023-04-03T02:13:20.537Z,101357.94
2023-04-03T02:14:52.444Z,101353.59
2023-04-03T02:16:24.273Z,101351.84
2023-04-03T02:17:56.193Z,101358.09
2023-04-03T02:19:28.711Z,101352.00
2023-04-03T02:21:00.645Z,101352.06
2023-04-03T02:22:32.454Z,101352.97
2023-04-03T02:24:04.380Z,101359.22
2023-04-03T02:25:38.498Z,101356.63
2023-04-03T02:27:11.028Z,101352.25
2023-04-03T02:28:43.355Z,101357.63
2023-04-03T02:30:15.921Z,101357.66
2023-04-03T02:31:47.749Z,101363.88
2023-04-03T02:33:20.651Z,101347.13
2023-04-03T02:34:52.527Z,101357.78
2023-04-03T02:36:24.367Z,101363.13
2023-04-03T02:38:00.367Z,101366.69
2023-04-03T02:39:32.219Z,101361.47
2023-04-03T02:41:12.579Z,101361.50
2023-04-03T02:42:44.415Z,101364.16
2023-04-03T02:44:16.392Z,101369.53
2023-04-03T02:45:48.295Z,101372.22
2023-04-03T02:47:20.610Z,101366.13
2023-04-03T02:48:53.609Z,101373.19
2023-04-03T02:50:25.464Z,101368.00
2023-04-03T02:51:57.332Z,101367.19
2023-04-03T02:53:29.285Z,101366.44
2023-04-03T02:55:04.806Z,101375.31
2023-04-03T02:56:36.900Z,101371.88
2023-04-03T02:58:09.762Z,101376.38
2023-04-03T02:59:41.884Z,101371.19
2023-04-03T03:01:15.746Z,101383.59
2023-04-03T03:02:47.896Z,101380.19
2023-04-03T03:04:20.145Z,101380.28
2023-04-03T03:06:05.026Z,101376.84
2023-04-03T03:07:36.914Z,101385.75
2023-04-03T03:09:08.848Z,101388.44
2023-04-03T03:10:40.804Z,101392.09
2023-04-03T03:12:13.051Z,101390.41
2023-04-03T03:13:44.872Z,101387.84
2023-04-03T03:15:18.424Z,101390.56
2023-04-03T03:16:50.747Z,101395.94
2023-04-03T03:18:22.843Z,101394.28
2023-04-03T03:19:54.704Z,101395.25
2023-04-03T03:21:27.294Z,101390.94
2023-04-03T03:22:59.114Z,101396.31
2023-04-03T03:24:31.045Z,101392.84
2023-04-03T03:26:08.108Z,101394.69
2023-04-03T03:27:40.954Z,101395.66
2023-04-03T03:29:13.054Z,101400.13
2023-04-03T03:30:45.540Z,101396.63
2023-04-03T03:32:17.398Z,101396.72
2023-04-03T03:33:49.208Z,101395.88
2023-04-03T03:35:21.123Z,101395.03
2023-04-03T03:36:53.201Z,101401.25
2023-04-03T03:38:25.470Z,101395.16
2023-04-03T03:39:58.193Z,101398.72
2023-04-03T03:41:30.033Z,101404.94
2023-04-03T03:43:01.874Z,101409.38
2023-04-03T03:44:33.750Z,101413.81
2023-04-03T03:46:05.784Z,101411.22
2023-04-03T03:47:37.840Z,101412.13
2023-04-03T03:49:09.960Z,101414.81
2023-04-03T03:50:41.892Z,101416.59
2023-04-03T03:52:14.370Z,101408.72
2023-04-03T03:53:46.821Z,101422.84
2023-04-03T03:55:21.616Z,101413.16
2023-04-03T03:56:57.405Z,101408.78
2023-04-03T03:58:30.709Z,101418.50
2023-04-03T04:00:03.124Z,101420.28
2023-04-03T04:01:35.936Z,101422.94
2023-04-03T04:03:07.853Z,101415.91
2023-04-03T04:04:39.913Z,101421.22
2023-04-03T04:06:11.848Z,101420.34
2023-04-03T04:07:43.730Z,101420.38
2023-04-03T04:09:16.448Z,101420.38
2023-04-03T04:10:48.483Z,101419.53
2023-04-03T04:12:22.551Z,101426.56
2023-04-03T04:13:54.515Z,101422.19
2023-04-03T04:15:30.639Z,101431.88
2023-04-03T04:17:03.623Z,101423.97
2023-04-03T04:18:35.943Z,101427.50
2023-04-03T04:20:08.298Z,101429.25
2023-04-03T04:21:42.632Z,101433.63
2023-04-03T04:23:14.975Z,101423.09
2023-04-03T04:24:46.821Z,101433.63
2023-04-03T04:26:19.357Z,101436.25
2023-04-03T04:27:51.248Z,101431.00
2023-04-03T04:29:23.379Z,101442.44
2023-04-03T04:30:57.248Z,101438.88
2023-04-03T04:32:31.992Z,101438.03
2023-04-03T04:34:04.214Z,101442.44
2023-04-03T04:35:36.660Z,101438.03
2023-04-03T04:37:09.400Z,101452.09
2023-04-03T04:38:42.122Z,101438.03
2023-04-03T04:40:14.188Z,101439.75
2023-04-03T04:41:46.146Z,101445.03
2023-04-03T04:43:18.661Z,101448.56
2023-04-03T04:44:52.909Z,101445.94
2023-04-03T04:46:24.982Z,101454.69
2023-04-03T04:48:00.993Z,101453.84
2023-04-03T04:49:32.960Z,101453.84
2023-04-03T04:51:05.699Z,101452.97
2023-04-03T04:52:38.330Z,101463.50
2023-04-03T04:54:10.942Z,101461.78
2023-04-03T04:55:44.072Z,101462.66
2023-04-03T04:57:16.776Z,101460.00
2023-04-03T04:58:49.141Z,101458.25
2023-04-03T05:00:23.259Z,101466.19
2023-04-03T05:01:55.323Z,101465.28
2023-04-03T05:03:27.196Z,101465.28
2023-04-03T05:04:59.091Z,101464.41
2023-04-03T05:06:34.156Z,101463.53
2023-04-03T05:08:07.319Z,101464.41
2023-04-03T05:09:39.475Z,101469.69
2023-04-03T05:11:11.345Z,101467.03
2023-04-03T05:12:44.486Z,101471.47
2023-04-03T05:14:16.638Z,101477.59
2023-04-03T05:15:49.304Z,101472.31
2023-04-03T05:17:22.033Z,101471.44
2023-04-03T05:18:57.906Z,101474.06
2023-04-03T05:20:29.779Z,101473.16
2023-04-03T05:22:01.687Z,101483.72
2023-04-03T05:23:34.910Z,101479.31
2023-04-03T05:25:09.037Z,101472.25
2023-04-03T05:26:40.957Z,101470.50
2023-04-03T05:28:13.928Z,101482.81
2023-04-03T05:29:46.297Z,101481.06
2023-04-03T05:31:23.643Z,101490.72
2023-04-03T05:32:55.893Z,101483.66
2023-04-03T05:34:37.779Z,101486.31
2023-04-03T05:36:10.549Z,101488.06
2023-04-03T05:37:49.791Z,101486.28
2023-04-03T05:39:23.549Z,101489.78
2023-04-03T05:40:55.491Z,101494.22
2023-04-03T05:42:27.511Z,101495.06
2023-04-03T05:43:59.349Z,101488.91
2023-04-03T05:45:31.741Z,101495.94
2023-04-03T05:47:04.987Z,101491.50
2023-04-03T05:48:38.142Z,101487.97
2023-04-03T05:50:10.794Z,101489.69
2023-04-03T05:51:42.835Z,101488.81
2023-04-03T05:53:30.549Z,101500.22
2023-04-03T05:55:06.154Z,101496.69
2023-04-03T05:56:40.698Z,101492.25
2023-04-03T05:58:12.897Z,101493.09
2023-04-03T05:59:47.670Z,101500.97
2023-04-03T06:01:20.002Z,101493.00
2023-04-03T06:02:52.111Z,101495.59
2023-04-03T06:04:28.271Z,101492.91
2023-04-03T06:06:00.197Z,101499.03
2023-04-03T06:07:32.402Z,101504.19
2023-04-03T06:09:04.388Z,101500.59
2023-04-03T06:10:37.515Z,101503.16
2023-04-03T06:12:09.851Z,101501.28
2023-04-03T06:13:42.734Z,101505.56
2023-04-03T06:15:14.575Z,101510.69
2023-04-03T06:16:46.442Z,101499.13
2023-04-03T06:18:18.319Z,101503.41
2023-04-03T06:19:50.786Z,101500.56
2023-04-03T06:21:22.921Z,101510.94
2023-04-03T06:22:54.752Z,101501.97
2023-04-03T06:24:26.645Z,101508.84
2023-04-03T06:25:58.486Z,101513.09
2023-04-03T06:27:30.308Z,101500.53
2023-04-03T06:29:03.418Z,101502.06
2023-04-03T06:30:36.561Z,101508.00
2023-04-03T06:32:08.608Z,101510.44
2023-04-03T06:33:40.816Z,101511.09
2023-04-03T06:35:12.611Z,101507.38
2023-04-03T06:36:46.275Z,101507.16
2023-04-03T06:38:20.233Z,101514.91
2023-04-03T06:39:52.059Z,101506.75
2023-04-03T06:41:23.880Z,101509.19
2023-04-03T06:42:55.793Z,101513.44
2023-04-03T06:44:27.809Z,101510.59
2023-04-03T06:46:03.896Z,101509.56
2023-04-03T06:47:35.957Z,101510.25
2023-04-03T06:49:11.004Z,101507.50
2023-04-03T06:50:43.327Z,101515.34
2023-04-03T06:52:15.339Z,101511.69
2023-04-03T06:53:48.650Z,101517.72
2023-04-03T06:55:20.821Z,101515.81
2023-04-03T06:56:53.025Z,101512.06
2023-04-03T06:58:25.213Z,101509.34
2023-04-03T06:59:57.143Z,101514.53
2023-04-03T07:01:31.146Z,101518.78
2023-04-03T07:03:03.899Z,101515.13
2023-04-03T07:04:36.031Z,101518.47
2023-04-03T07:06:10.874Z,101521.09
2023-04-03T07:07:42.899Z,101520.94
2023-04-03T07:09:15.623Z,101520.88
2023-04-03T07:10:47.441Z,101528.81
2023-04-03T07:12:19.250Z,101535.03
2023-04-03T07:13:51.665Z,101534.03
2023-04-03T07:15:23.493Z,101535.72
2023-04-03T07:16:55.371Z,101531.19
2023-04-03T07:18:27.534Z,101539.97
2023-04-03T07:19:59.337Z,101539.91
2023-04-03T07:21:31.280Z,101544.22
2023-04-03T07:23:04.298Z,101551.19
2023-04-03T07:24:36.944Z,101543.13
2023-04-03T07:26:09.338Z,101544.84
2023-04-03T07:27:41.150Z,101538.59
2023-04-03T07:29:13.525Z,101541.19
2023-04-03T07:30:51.741Z,101543.78
2023-04-03T07:32:23.607Z,101538.38
2023-04-03T07:33:55.510Z,101544.53
2023-04-03T07:35:27.631Z,101552.38
2023-04-03T07:37:00.124Z,101545.25
2023-04-03T07:38:32.179Z,101554.09
2023-04-03T07:40:05.177Z,101548.69
2023-04-03T07:41:37.004Z,101546.81
2023-04-03T07:43:08.867Z,101550.25
2023-04-03T07:44:41.615Z,101547.47
2023-04-03T07:46:14.055Z,101551.75
2023-04-03T07:47:46.108Z,101553.41
2023-04-03T07:49:19.420Z,101549.72
2023-04-03T07:50:51.804Z,101551.41
2023-04-03T07:52:23.643Z,101555.75
2023-04-03T07:53:55.537Z,101568.13
2023-04-03T07:55:27.347Z,101551.13
2023-04-03T07:56:59.158Z,101551.25
2023-04-03T07:58:31.548Z,101560.03
2023-04-03T08:00:04.899Z,101549.41
2023-04-03T08:01:43.970Z,101554.69
2023-04-03T08:03:17.868Z,101550.19
2023-04-03T08:04:49.907Z,101559.78
2023-04-03T08:06:32.975Z,101549.16
2023-04-03T08:08:17.103Z,101549.97
2023-04-03T08:09:50.380Z,101555.22
2023-04-03T08:11:22.544Z,101551.56
2023-04-03T08:12:54.527Z,101550.53
2023-04-03T08:14:26.428Z,101547.84
2023-04-03T08:16:00.292Z,101553.94
2023-04-03T08:17:32.203Z,101544.00
2023-04-03T08:19:07.287Z,101543.91
2023-04-03T08:20:41.690Z,101551.75
2023-04-03T08:22:13.500Z,101546.06
2023-04-03T08:23:45.495Z,101546.81
2023-04-03T08:25:18.622Z,101542.19
2023-04-03T08:26:50.421Z,101554.53
2023-04-03T08:28:22.337Z,101555.34
2023-04-03T08:29:54.155Z,101553.44
2023-04-03T08:31:26.093Z,101552.56
2023-04-03T08:32:58.097Z,101555.16
2023-04-03T08:34:29.896Z,101558.59
2023-04-03T08:36:01.875Z,101554.94
2023-04-03T08:37:37.252Z,101555.66
2023-04-03T08:39:09.110Z,101551.13
2023-04-03T08:40:41.925Z,101551.88
2023-04-03T08:42:20.898Z,101550.78
2023-04-03T08:44:17.410Z,101554.06
2023-04-03T08:45:56.739Z,101557.28
2023-04-03T08:47:39.294Z,101557.00
2023-04-03T08:49:22.634Z,101556.53
2023-04-03T08:50:59.068Z,101556.16
2023-04-03T08:52:39.039Z,101548.56
2023-04-03T08:54:22.252Z,101553.56
2023-04-03T08:55:55.496Z,101549.44
2023-04-03T08:57:40.600Z,101555.56
2023-04-03T08:59:19.851Z,101554.25
2023-04-03T09:00:57.717Z,101555.72
2023-04-03T09:02:34.902Z,101557.16
2023-04-03T09:04:14.262Z,101553.28
2023-04-03T09:06:01.202Z,101561.72
2023-04-03T09:07:43.975Z,101552.38
2023-04-03T09:09:42.268Z,101559.31
2023-04-03T09:11:36.921Z,101560.31
2023-04-03T09:13:26.008Z,101555.91
2023-04-03T09:15:04.407Z,101559.38
2023-04-03T09:16:47.147Z,101555.09
2023-04-03T09:18:28.039Z,101557.72
2023-04-03T09:20:20.172Z,101548.69
2023-04-03T09:21:53.090Z,101549.25
2023-04-03T09:23:33.797Z,101552.41
2023-04-03T09:25:23.079Z,101549.13
2023-04-03T09:27:00.842Z,101549.16
2023-04-03T09:28:49.320Z,101547.47
2023-04-03T09:30:25.448Z,101541.94
2023-04-03T09:32:01.760Z,101545.28
2023-04-03T09:33:35.130Z,101544.03
2023-04-03T09:35:40.420Z,101543.69
2023-04-03T09:37:41.938Z,101546.53
2023-04-03T09:39:31.689Z,101542.63
2023-04-03T09:41:08.642Z,101539.84
2023-04-03T09:42:46.173Z,101536.53
2023-04-03T09:44:24.486Z,101537.63
2023-04-03T09:46:18.053Z,101542.47
2023-04-03T09:48:08.387Z,101540.19
2023-04-03T09:49:42.306Z,101540.34
2023-04-03T09:51:16.379Z,101532.03
2023-04-03T09:52:50.887Z,101534.41
2023-04-03T09:54:38.652Z,101539.88
2023-04-03T09:56:23.444Z,101527.38
2023-04-03T09:58:06.301Z,101531.88
2023-04-03T09:59:44.796Z,101529.59
2023-04-03T10:01:40.460Z,101519.88
2023-04-03T10:03:27.646Z,101533.22
2023-04-03T10:06:51.118Z,101525.94
2023-04-03T10:08:27.411Z,101527.78
2023-04-03T10:10:17.659Z,101518.44
2023-04-03T10:12:15.602Z,101518.47
2023-04-03T10:14:00.713Z,101518.47
2023-04-03T10:15:40.716Z,101515.72
2023-04-03T10:17:44.099Z,101518.03
2023-04-03T10:19:37.932Z,101517.66
2023-04-03T10:21:34.183Z,101510.16
2023-04-03T10:23:53.602Z,101512.63
2023-04-03T10:25:33.986Z,101509.25
2023-04-03T10:27:36.314Z,101503.34
2023-04-03T10:29:14.187Z,101506.13
2023-04-03T10:31:13.448Z,101508.91
2023-04-03T10:33:13.357Z,101505.41
2023-04-03T10:34:54.738Z,101502.13
2023-04-03T10:36:49.000Z,101495.22
2023-04-03T10:38:38.971Z,101504.50
2023-04-03T10:40:32.445Z,101496.66
2023-04-03T10:42:16.537Z,101501.53
2023-04-03T10:44:18.012Z,101501.88
2023-04-03T10:46:01.867Z,101504.72
2023-04-03T10:47:44.909Z,101500.78
2023-04-03T10:49:35.338Z,101505.91
2023-04-03T10:51:25.740Z,101510.25
2023-04-03T10:53:33.791Z,101506.69
2023-04-03T10:55:25.627Z,101499.44
2023-04-03T10:57:11.931Z,101504.31
2023-04-03T10:58:50.373Z,101499.19
2023-04-03T11:00:50.446Z,101495.78
2023-04-03T11:02:31.352Z,101488.19
2023-04-03T11:04:07.336Z,101485.03
2023-04-03T11:05:45.963Z,101480.00
2023-04-03T11:07:32.946Z,101477.69
2023-04-03T11:09:16.897Z,101481.56
2023-04-03T11:10:53.188Z,101474.69
2023-04-03T11:12:44.151Z,101476.94
2023-04-03T11:14:26.111Z,101479.41
2023-04-03T11:15:59.492Z,101480.16
2023-04-03T11:17:40.277Z,101471.06
2023-04-03T11:19:25.376Z,101470.97
2023-04-03T11:21:17.176Z,101474.38
2023-04-03T11:22:59.761Z,101473.09
2023-04-03T11:24:34.590Z,101467.63
2023-04-03T11:26:13.062Z,101470.31
2023-04-03T11:27:55.029Z,101474.97
2023-04-03T11:29:40.773Z,101477.94
2023-04-03T11:31:31.496Z,101474.88
2023-04-03T11:33:11.507Z,101469.84
2023-04-03T11:34:46.828Z,101465.06
2023-04-03T11:36:50.308Z,101470.56
2023-04-03T11:38:27.885Z,101474.09
2023-04-03T11:40:05.293Z,101469.41
2023-04-03T11:41:37.496Z,101476.66
2023-04-03T11:43:30.581Z,101468.75
2023-04-03T11:45:31.171Z,101475.81
2023-04-03T11:47:05.414Z,101470.91
2023-04-03T11:48:37.602Z,101468.75
2023-04-03T11:50:35.360Z,101461.53
2023-04-03T11:52:13.288Z,101471.41
2023-04-03T11:53:46.163Z,101460.81
2023-04-03T11:55:21.412Z,101458.91
2023-04-03T11:56:53.272Z,101461.75
2023-04-03T11:58:27.605Z,101454.28
2023-04-03T11:59:59.434Z,101465.81
2023-04-03T12:01:53.755Z,101454.56
2023-04-03T12:03:28.945Z,101465.13
2023-04-03T12:05:27.576Z,101468.25
2023-04-03T12:07:20.170Z,101457.72
2023-04-03T12:08:55.110Z,101461.34
2023-04-03T12:10:32.346Z,101453.47
2023-04-03T12:12:37.888Z,101460.78
2023-04-03T12:14:17.609Z,101457.00
2023-04-03T12:15:52.784Z,101459.53
2023-04-03T12:17:29.141Z,101454.84
2023-04-03T12:19:26.549Z,101455.72
2023-04-03T12:21:04.588Z,101459.78
2023-04-03T12:22:36.516Z,101455.22
2023-04-03T12:24:08.315Z,101459.50
2023-04-03T12:25:51.972Z,101462.47
2023-04-03T12:27:35.529Z,101463.34
2023-04-03T12:29:41.036Z,101453.75
2023-04-03T12:31:14.411Z,101449.06
2023-04-03T12:33:14.607Z,101455.50
2023-04-03T12:35:19.765Z,101458.25
2023-04-03T12:37:04.953Z,101453.69
2023-04-03T12:39:04.509Z,101443.84
2023-04-03T12:40:48.861Z,101450.81
2023-04-03T12:42:44.835Z,101446.81
2023-04-03T12:44:27.774Z,101447.72
2023-04-03T12:46:09.302Z,101454.03
2023-04-03T12:47:44.513Z,101460.50
2023-04-03T12:49:31.416Z,101448.16
2023-04-03T12:51:04.391Z,101448.16
2023-04-03T12:52:45.249Z,101450.22
2023-04-03T12:54:25.172Z,101460.19
2023-04-03T12:56:37.686Z,101457.72
2023-04-03T12:58:28.902Z,101454.13
2023-04-03T13:00:01.256Z,101452.34
2023-04-03T13:01:33.103Z,101454.13
2023-04-03T13:03:07.459Z,101443.47
2023-04-03T13:04:39.660Z,101442.72
2023-04-03T13:06:18.216Z,101443.59
2023-04-03T13:07:58.233Z,101443.53
2023-04-03T13:09:32.250Z,101444.41
2023-04-03T13:11:09.847Z,101449.91
2023-04-03T13:12:57.214Z,101452.78
2023-04-03T13:14:30.652Z,101450.56
2023-04-03T13:16:11.581Z,101457.25
2023-04-03T13:17:44.824Z,101459.28
2023-04-03T13:19:18.583Z,101457.09
2023-04-03T13:20:51.205Z,101460.09
2023-04-03T13:22:44.603Z,101455.94
2023-04-03T13:24:16.798Z,101460.03
2023-04-03T13:25:49.655Z,101458.56
2023-04-03T13:27:22.126Z,101452.56
2023-04-03T13:28:57.230Z,101457.22
2023-04-03T13:30:35.906Z,101461.09
2023-04-03T13:32:17.850Z,101469.94
2023-04-03T13:33:59.815Z,101453.94
2023-04-03T13:35:36.060Z,101454.75
2023-04-03T13:37:23.065Z,101452.06
2023-04-03T13:39:22.332Z,101454.88
2023-04-03T13:41:04.322Z,101458.41
2023-04-03T13:42:39.125Z,101444.09
2023-04-03T13:44:23.194Z,101447.72
2023-04-03T13:46:18.199Z,101449.66
2023-04-03T13:47:51.443Z,101449.44
2023-04-03T13:49:36.672Z,101446.84
2023-04-03T13:51:14.236Z,101444.19
2023-04-03T13:52:56.518Z,101447.72
2023-04-03T13:54:39.454Z,101441.56
2023-04-03T13:56:21.838Z,101452.22
2023-04-03T13:58:00.805Z,101447.75
2023-04-03T13:59:36.025Z,101449.31
2023-04-03T14:01:18.150Z,101446.78
2023-04-03T14:02:50.159Z,101441.63
2023-04-03T14:04:28.995Z,101439.00
2023-04-03T14:06:02.650Z,101449.78
2023-04-03T14:07:34.508Z,101441.06
2023-04-03T14:09:06.569Z,101449.22
2023-04-03T14:10:38.837Z,101439.59
2023-04-03T14:12:32.672Z,101440.59
2023-04-03T14:14:13.976Z,101442.47
2023-04-03T14:15:49.564Z,101453.06
2023-04-03T14:17:26.374Z,101451.25
2023-04-03T14:18:58.404Z,101438.66
2023-04-03T14:20:30.277Z,101441.28
2023-04-03T14:22:12.598Z,101441.28
2023-04-03T14:23:45.287Z,101443.88
2023-04-03T14:25:18.090Z,101443.81
2023-04-03T14:26:53.317Z,101442.97
2023-04-03T14:28:25.392Z,101433.13
2023-04-03T14:29:59.310Z,101444.69
2023-04-03T14:31:31.263Z,101440.34
2023-04-03T14:33:03.251Z,101444.81
2023-04-03T14:34:35.108Z,101439.34
2023-04-03T14:36:23.269Z,101451.13
2023-04-03T14:37:56.133Z,101451.16
2023-04-03T14:39:28.003Z,101446.75
2023-04-03T14:41:10.066Z,101443.34
2023-04-03T14:42:49.817Z,101446.97
2023-04-03T14:44:21.748Z,101446.19
2023-04-03T14:45:54.191Z,101437.38
2023-04-03T14:47:31.727Z,101446.41
2023-04-03T14:49:11.724Z,101444.75
2023-04-03T14:50:51.717Z,101434.97
2023-04-03T14:52:34.348Z,101438.59
2023-04-03T14:54:12.484Z,101442.22
2023-04-03T14:55:47.310Z,101432.44
2023-04-03T14:57:20.245Z,101436.88
2023-04-03T14:58:56.980Z,101435.91
2023-04-03T15:00:28.971Z,101429.63
2023-04-03T15:02:01.018Z,101433.13
2023-04-03T15:03:33.512Z,101437.56
2023-04-03T15:05:09.181Z,101437.66
2023-04-03T15:06:42.151Z,101435.91
2023-04-03T15:08:23.546Z,101442.22
2023-04-03T15:09:57.387Z,101438.72
2023-04-03T15:11:29.188Z,101440.44
2023-04-03T15:13:01.738Z,101438.84
2023-04-03T15:14:36.818Z,101442.47
2023-04-03T15:16:19.796Z,101441.63
2023-04-03T15:17:59.097Z,101444.44
2023-04-03T15:19:37.105Z,101439.09
2023-04-03T15:21:08.911Z,101441.84
2023-04-03T15:22:40.940Z,101437.47
2023-04-03T15:24:12.813Z,101440.22
2023-04-03T15:25:46.102Z,101442.94
2023-04-03T15:27:18.017Z,101438.53
2023-04-03T15:28:49.889Z,101444.84
2023-04-03T15:30:22.651Z,101436.03
2023-04-03T15:31:54.808Z,101434.38
2023-04-03T15:33:27.274Z,101438.09
2023-04-03T15:34:59.167Z,101441.81
2023-04-03T15:36:34.658Z,101443.75
2023-04-03T15:38:07.349Z,101437.69
2023-04-03T15:39:39.161Z,101439.69
2023-04-03T15:41:11.130Z,101446.03
2023-04-03T15:42:42.912Z,101439.06
2023-04-03T15:44:14.997Z,101441.88
2023-04-03T15:45:46.922Z,101441.91
2023-04-03T15:47:19.000Z,101440.25
2023-04-03T15:48:50.960Z,101436.75
2023-04-03T15:50:24.339Z,101438.69
2023-04-03T15:51:56.139Z,101443.16
2023-04-03T15:53:28.006Z,101443.16
2023-04-03T15:54:59.978Z,101442.31
2023-04-03T15:56:31.833Z,101437.94
2023-04-03T15:58:04.844Z,101441.50
2023-04-03T15:59:36.759Z,101442.56
2023-04-03T16:01:12.432Z,101440.81
2023-04-03T16:02:46.634Z,101438.31
2023-04-03T16:04:19.457Z,101438.47
2023-04-03T16:05:52.677Z,101438.63
2023-04-03T16:07:24.471Z,101433.38
2023-04-03T16:08:59.044Z,101439.78
2023-04-03T16:10:31.158Z,101444.28
2023-04-03T16:12:03.209Z,101446.16
2023-04-03T16:13:35.998Z,101440.81
2023-04-03T16:15:08.894Z,101432.84
2023-04-03T16:16:40.899Z,101438.28
2023-04-03T16:18:14.539Z,101437.41
2023-04-03T16:19:46.396Z,101438.31
2023-04-03T16:21:18.546Z,101440.13
2023-04-03T16:22:50.751Z,101439.28
2023-04-03T16:24:22.796Z,101434.09
2023-04-03T16:25:54.621Z,101442.13
2023-04-03T16:27:28.762Z,101432.44
2023-04-03T16:29:00.592Z,101439.69
2023-04-03T16:30:32.589Z,101437.13
2023-04-03T16:32:05.069Z,101446.94
2023-04-03T16:33:37.920Z,101449.78
2023-04-03T16:35:12.126Z,101437.34
2023-04-03T16:36:44.109Z,101441.88
2023-04-03T16:38:16.654Z,101447.31
2023-04-03T16:39:48.482Z,101451.06
2023-04-03T16:41:20.275Z,101451.19
2023-04-03T16:42:52.082Z,101448.63
2023-04-03T16:44:23.933Z,101448.72
2023-04-03T16:45:55.773Z,101448.81
2023-04-03T16:47:27.659Z,101451.59
2023-04-03T16:48:59.466Z,101445.47
2023-04-03T16:50:31.266Z,101443.78
2023-04-03T16:52:04.861Z,101448.28
2023-04-03T16:53:37.220Z,101448.44
2023-04-03T16:55:10.375Z,101456.47
2023-04-03T16:56:42.160Z,101448.56
2023-04-03T16:58:14.280Z,101448.66
2023-04-03T16:59:46.090Z,101446.94
2023-04-03T17:01:20.144Z,101452.34
2023-04-03T17:02:51.936Z,101450.69
2023-04-03T17:04:23.783Z,101449.88
2023-04-03T17:05:55.642Z,101457.03
2023-04-03T17:07:27.610Z,101449.13
2023-04-03T17:08:59.419Z,101445.66
2023-04-03T17:10:35.926Z,101452.09
2023-04-03T17:12:07.713Z,101445.09
2023-04-03T17:13:39.745Z,101448.72
2023-04-03T17:15:12.038Z,101446.16
2023-04-03T17:16:44.006Z,101445.38
2023-04-03T17:18:16.066Z,101441.03
2023-04-03T17:19:48.236Z,101449.19
2023-04-03T17:21:20.896Z,101444.81
2023-04-03T17:22:52.687Z,101445.88
2023-04-03T17:24:24.812Z,101456.69
2023-04-03T17:25:56.864Z,101456.88
2023-04-03T17:27:28.754Z,101459.72
2023-04-03T17:29:01.147Z,101461.69
2023-04-03T17:30:33.042Z,101459.31
2023-04-03T17:32:05.136Z,101463.09
2023-04-03T17:33:37.128Z,101463.41
2023-04-03T17:35:11.612Z,101463.63
2023-04-03T17:36:44.055Z,101456.88
2023-04-03T17:38:16.056Z,101458.94
2023-04-03T17:39:47.971Z,101465.47
2023-04-03T17:41:19.793Z,101463.09
2023-04-03T17:42:51.713Z,101468.69
2023-04-03T17:44:23.584Z,101468.13
2023-04-03T17:46:03.921Z,101470.25
2023-04-03T17:47:36.004Z,101468.75
2023-04-03T17:49:07.910Z,101469.06
2023-04-03T17:50:39.713Z,101471.16
2023-04-03T17:52:11.540Z,101474.97
2023-04-03T17:53:44.623Z,101475.25
2023-04-03T17:55:17.853Z,101476.41
2023-04-03T17:56:49.651Z,101478.44
2023-04-03T17:58:21.483Z,101472.53
2023-04-03T17:59:54.245Z,101471.00
2023-04-03T18:01:32.324Z,101475.66
2023-04-03T18:03:04.437Z,101478.47
2023-04-03T18:04:36.895Z,101470.72
2023-04-03T18:06:11.742Z,101479.72
2023-04-03T18:07:43.635Z,101480.81
2023-04-03T18:09:18.586Z,101475.69
2023-04-03T18:10:50.424Z,101474.91
2023-04-03T18:12:22.545Z,101483.91
2023-04-03T18:13:58.174Z,101484.91
2023-04-03T18:15:31.272Z,101478.84
2023-04-03T18:17:04.245Z,101477.22
2023-04-03T18:18:36.433Z,101478.19